Kolyvan, Russia
Current Conditions -  °F | °C
As of 9:30 PM on Thursday 23 Oct 2014 (Local Time) from UNNT Reporting Station
Clear Clear  
Wind Chill: 32°   Ceiling: Unl
Heat Index: 36°   Visibility: 6mi
Dew Point: 32°   Wind: 4mph
Humidity: 87%   Direction: 30°NNE
Pressure: 29.83"   Gusts: NA
Location:  55.31°N, 82.74°E
Report Text: UNNT 231430Z 03002MPS CAVOK 02/M00 Q1010 25090070 16090070NOSIG RMK QFE747/0997
Loading
Personal Weather Stations






























Interactive Weather Map
Tropical Storm Tracking
New forecast layout! Learn more

10-Day Weather Forecast

Advertisements
Track Severe Weather on mobile